Milledgeville, Ohio
Current Conditions -  °F | °C
As of 8:54 AM on Friday 24 Oct 2014 (Local Time) from KILN Reporting Station
Haze Haze  
Wind Chill: 42°   Ceiling: Unl
Heat Index: 42°   Visibility: 5mi
Dew Point: 39°   Wind: 0mph
Humidity: 89%   Direction: NA
Pressure: 30.13"   Gusts: NA
Location:  39.59°N, 83.59°W
Report Text: KILN 241254Z AUTO 00000KT 5SM BR CLR 06/04 A3013 RMK AO2 SLP218 T00560039
Loading
Personal Weather Stations






























Interactive Weather Map
Tropical Storm Tracking
New forecast layout! Learn more

10-Day Weather Forecast

Advertisements
Track Severe Weather on mobile